Time;durP1;ratioP1;P1;durP2;ratioP2;P2;SDS_P1;SDS_P2;PMS_P1;PMS_P2;Temp;Humidity;BMP_temperature;BMP_pressure;BME280_temperature;BME280_humidity;BME280_pressure;Samples;Min_cycle;Max_cycle;Signal;HPM_P1;HPM_P2
2022/04/27 00:01:09;;;;;;;19.25;3.25;;;;;;;13.39;48.40;99346.75;5098498;28;20134;-80
2022/04/27 00:03:35;;;;;;;5.18;2.95;;;;;;;13.40;48.53;99354.69;5081772;28;20035;-80
2022/04/27 00:06:01;;;;;;;8.85;3.10;;;;;;;13.44;48.53;99357.94;5099302;28;20095;-80
2022/04/27 00:08:27;;;;;;;8.90;3.55;;;;;;;13.50;48.52;99368.09;5065529;28;20035;-80
2022/04/27 00:10:53;;;;;;;9.38;4.05;;;;;;;13.57;48.45;99364.72;5064872;28;20491;-80
2022/04/27 00:13:19;;;;;;;7.38;3.00;;;;;;;13.58;48.09;99363.75;5081864;28;20069;-79
2022/04/27 00:15:45;;;;;;;11.27;3.80;;;;;;;13.58;48.35;99360.22;5065087;28;20046;-80
2022/04/27 00:18:11;;;;;;;7.53;3.30;;;;;;;13.54;48.27;99365.03;5098739;28;20124;-82
2022/04/27 00:20:37;;;;;;;9.20;3.35;;;;;;;13.61;48.29;99359.91;5081476;28;20547;-80
2022/04/27 00:23:03;;;;;;;6.85;3.50;;;;;;;13.65;48.26;99366.69;5081139;28;20050;-79
2022/04/27 00:25:29;;;;;;;8.80;3.85;;;;;;;13.65;48.51;99358.63;5081638;28;20417;-81
2022/04/27 00:27:55;;;;;;;9.18;4.10;;;;;;;13.65;48.51;99355.94;5081904;28;20092;-80
2022/04/27 00:30:21;;;;;;;16.13;3.65;;;;;;;13.54;48.46;99343.53;5098209;28;20038;-81
2022/04/27 00:32:47;;;;;;;9.27;3.40;;;;;;;13.56;48.77;99340.69;5098529;28;20118;-79
2022/04/27 00:35:16;;;;;;;6.45;3.25;;;;;;;13.67;48.33;99356.66;5098004;28;20046;-79
2022/04/27 00:37:42;;;;;;;7.70;3.33;;;;;;;13.65;48.33;99344.34;5080805;28;20039;-80
2022/04/27 00:40:08;;;;;;;6.05;3.20;;;;;;;13.82;48.25;99355.25;5115610;28;20067;-79
2022/04/27 00:42:34;;;;;;;10.18;4.03;;;;;;;13.81;48.08;99350.88;5097057;28;20040;-79
2022/04/27 00:45:02;;;;;;;9.82;5.30;;;;;;;13.87;48.04;99343.22;5080174;28;20148;-80
2022/04/27 00:47:30;;;;;;;;;;;;;;;13.91;47.89;99339.25;5080612;28;20044;-79
2022/04/27 00:50:02;;;;;;;10.95;3.55;;;;;;;13.80;47.78;99321.44;5115845;28;19923;-79
2022/04/27 00:52:30;;;;;;;11.63;3.58;;;;;;;13.84;47.98;99323.72;5097160;28;20461;-80
2022/04/27 00:54:57;;;;;;;6.13;3.30;;;;;;;13.80;47.71;99324.13;5116057;28;20038;-80
2022/04/27 00:57:24;;;;;;;8.57;3.05;;;;;;;13.60;48.19;99304.50;5097385;28;20054;-81
2022/04/27 00:59:51;;;;;;;10.60;3.28;;;;;;;13.77;48.35;99314.53;5063091;28;20405;-79
2022/04/27 01:02:18;;;;;;;6.25;3.10;;;;;;;13.75;48.31;99310.28;5080654;28;20613;-80
2022/04/27 01:04:44;;;;;;;7.95;3.40;;;;;;;13.75;48.42;99312.97;5096838;28;20039;-80
2022/04/27 01:07:11;;;;;;;12.82;3.60;;;;;;;13.69;48.16;99300.97;5079899;28;20132;-80
2022/04/27 01:09:38;;;;;;;7.32;3.65;;;;;;;13.79;48.05;99317.06;5079641;28;20039;-79
2022/04/27 01:12:04;;;;;;;22.83;9.25;;;;;;;13.89;48.21;99306.31;5092843;28;20427;-81
2022/04/27 01:14:48;;;;;;;14.55;3.90;;;;;;;13.95;47.74;99300.34;5093124;28;20108;-79
2022/04/27 01:17:14;;;;;;;15.82;4.07;;;;;;;13.92;47.53;99290.75;5093720;28;20177;-78
2022/04/27 01:19:40;;;;;;;14.70;3.92;;;;;;;14.08;47.33;99287.44;5093027;28;20513;-80
2022/04/27 01:22:08;;;;;;;8.30;3.83;;;;;;;14.13;46.92;99295.06;5076379;28;20040;-80
2022/04/27 01:24:40;;;;;;;15.75;3.80;;;;;;;14.24;46.96;99295.72;5076344;28;20081;-79
2022/04/27 01:27:06;;;;;;;13.15;3.58;;;;;;;14.29;46.66;99295.28;5076272;28;20040;-79
2022/04/27 01:29:35;;;;;;;10.00;3.70;;;;;;;14.38;46.61;99294.41;5076093;28;20097;-80
2022/04/27 01:32:01;;;;;;;10.63;4.05;;;;;;;14.44;46.20;99292.94;5059860;28;20075;-79
2022/04/27 01:34:28;;;;;;;6.60;3.25;;;;;;;14.41;46.24;99293.28;5094464;28;20044;-80
2022/04/27 01:36:55;;;;;;;17.02;3.22;;;;;;;14.45;45.80;99294.66;5076473;28;20044;-80
2022/04/27 01:39:23;;;;;;;14.25;3.33;;;;;;;14.54;45.61;99299.16;5075464;28;20044;-80
2022/04/27 01:41:50;;;;;;;5.35;3.10;;;;;;;14.53;45.52;99286.72;5092306;28;20135;-80
2022/04/27 01:44:16;;;;;;;8.63;3.45;;;;;;;14.66;45.39;99303.34;5075385;28;20055;-79
2022/04/27 01:46:42;;;;;;;11.30;3.40;;;;;;;14.67;45.34;99298.81;5059116;28;20039;-79
2022/04/27 01:49:08;;;;;;;6.63;2.85;;;;;;;14.68;44.91;99311.28;5059234;28;20048;-79
2022/04/27 01:54:18;;;;;;;17.20;2.80;;;;;;;14.61;44.70;99321.78;5093025;28;20040;-81
2022/04/27 01:56:49;;;;;;;8.80;3.30;;;;;;;14.70;44.38;99330.81;5059547;28;20068;-80
2022/04/27 01:59:16;;;;;;;7.83;2.87;;;;;;;14.62;44.52;99312.72;5092228;28;20051;-80
2022/04/27 02:01:43;;;;;;;12.52;2.97;;;;;;;14.75;44.43;99324.00;5075365;28;20087;-81
2022/04/27 02:04:10;;;;;;;11.43;2.80;;;;;;;14.83;44.03;99339.38;5100987;28;20040;-81
2022/04/27 02:06:37;;;;;;;6.93;2.92;;;;;;;14.90;43.96;99326.19;5095846;28;20035;-79
2022/04/27 02:09:08;;;;;;;9.68;3.20;;;;;;;14.82;44.07;99318.88;5094287;28;20134;-79
2022/04/27 02:11:53;;;;;;;9.57;2.97;;;;;;;14.98;43.77;99337.03;5080362;28;20051;-79
2022/04/27 02:14:19;;;;;;;7.28;3.53;;;;;;;15.01;44.17;99339.44;5094693;28;20413;-81
2022/04/27 02:16:46;;;;;;;11.05;3.10;;;;;;;15.07;43.68;99333.41;5078423;28;20047;-81
2022/04/27 02:19:16;;;;;;;12.50;3.58;;;;;;;15.03;44.16;99332.88;5079431;28;20048;-80
2022/04/27 02:21:44;;;;;;;10.15;4.10;;;;;;;15.00;43.81;99335.03;5074351;28;20133;-80
2022/04/27 02:24:11;;;;;;;15.40;3.67;;;;;;;14.92;43.76;99298.09;5082115;28;20043;-82
2022/04/27 02:26:37;;;;;;;9.40;3.22;;;;;;;15.06;44.15;99340.66;5081916;28;20043;-80
2022/04/27 02:29:03;;;;;;;17.67;3.63;;;;;;;15.01;45.03;99339.44;5098231;28;20089;-79
2022/04/27 02:31:30;;;;;;;6.90;3.35;;;;;;;14.92;45.94;99345.69;5081705;28;20070;-80
2022/04/27 02:33:56;;;;;;;12.40;3.85;;;;;;;14.84;46.46;99334.84;5115626;27;20043;-80
2022/04/27 02:36:24;;;;;;;9.75;3.38;;;;;;;14.77;46.86;99289.69;5102471;27;20047;-80
2022/04/27 02:38:50;;;;;;;11.65;3.80;;;;;;;14.89;46.95;99286.78;5138288;27;20047;-80
2022/04/27 02:41:16;;;;;;;4.53;3.65;;;;;;;14.71;48.13;99273.31;5119333;27;20051;-80
2022/04/27 02:43:42;;;;;;;12.45;3.17;;;;;;;14.81;47.58;99296.47;5119412;27;20042;-80
2022/04/27 02:46:12;;;;;;;5.28;3.03;;;;;;;14.85;47.42;99297.00;5102965;27;20050;-80
2022/04/27 02:51:48;;;;;;;7.00;3.00;;;;;;;14.91;47.56;99292.88;5119101;27;20051;-79
2022/04/27 02:54:11;;;;;;;5.87;2.70;;;;;;;15.01;47.42;99290.97;5102017;27;20035;-78
2022/04/27 02:56:37;;;;;;;5.20;2.90;;;;;;;15.10;47.20;99286.50;5134742;27;20235;-79
2022/04/27 02:59:03;;;;;;;7.95;2.67;;;;;;;15.09;47.38;99288.38;5082051;28;20418;-79
2022/04/27 03:01:29;;;;;;;5.15;2.28;;;;;;;15.19;47.46;99288.28;5082039;28;20126;-80
2022/04/27 03:03:56;;;;;;;5.22;3.13;;;;;;;15.19;47.55;99285.56;5110219;27;20066;-80
2022/04/27 03:06:23;;;;;;;7.18;2.85;;;;;;;15.18;47.20;99271.28;5102182;27;20046;-78
2022/04/27 03:08:49;;;;;;;14.63;2.58;;;;;;;15.29;46.74;99279.13;5118824;27;20055;-80
2022/04/27 03:11:15;;;;;;;10.88;2.72;;;;;;;15.38;46.75;99289.97;5101534;27;20043;-79
2022/04/27 03:14:01;;;;;;;10.50;2.45;;;;;;;15.54;46.60;99288.28;5118181;27;20051;-80
2022/04/27 03:16:27;;;;;;;9.43;2.65;;;;;;;15.37;46.98;99296.34;5102005;27;20066;-81
2022/04/27 03:18:53;;;;;;;6.55;2.63;;;;;;;15.44;46.85;99281.28;5101747;27;20039;-79
2022/04/27 03:21:19;;;;;;;8.07;2.38;;;;;;;15.55;46.42;99276.47;5084569;27;20047;-79
2022/04/27 03:23:45;;;;;;;7.65;2.60;;;;;;;15.61;45.82;99298.41;5102101;27;20046;-80
2022/04/27 03:26:11;;;;;;;6.45;2.40;;;;;;;15.63;46.23;99294.56;5102160;27;20039;-81
2022/04/27 03:28:37;;;;;;;5.80;2.47;;;;;;;15.67;46.25;99298.66;5118691;27;20035;-79
2022/04/27 03:31:03;;;;;;;11.27;2.53;;;;;;;15.74;45.83;99285.41;5101777;27;20491;-78
2022/04/27 03:33:37;;;;;;;10.30;2.58;;;;;;;15.88;46.20;99297.50;5085773;27;20124;-80
2022/04/27 03:36:03;;;;;;;13.45;3.83;;;;;;;16.01;45.92;99316.78;5118798;27;20473;-79
2022/04/27 03:38:30;;;;;;;6.65;2.50;;;;;;;16.08;44.98;99309.75;5081558;28;20050;-80
2022/04/27 03:40:56;;;;;;;18.88;3.08;;;;;;;16.05;45.24;99285.78;5102106;27;20409;-79
2022/04/27 03:43:22;;;;;;;11.32;3.60;;;;;;;16.07;45.28;99289.19;5084412;27;20043;-79
2022/04/27 03:45:49;;;;;;;13.07;3.10;;;;;;;16.19;45.71;99298.69;5097260;28;20115;-79
2022/04/27 03:48:15;;;;;;;10.77;3.13;;;;;;;16.25;45.60;99308.00;5093830;27;20070;-78
2022/04/27 03:50:40;;;;;;;10.05;3.10;;;;;;;16.38;45.29;99323.75;5100990;27;20039;-79
2022/04/27 03:53:07;;;;;;;13.88;3.67;;;;;;;16.48;45.01;99313.69;5118135;27;20054;-79
2022/04/27 03:55:36;;;;;;;8.43;3.15;;;;;;;16.54;45.40;99302.22;5117999;27;20047;-82
2022/04/27 03:58:03;;;;;;;;;;;;;;;16.65;45.26;99304.63;5101395;27;20039;-77
2022/04/27 04:00:30;;;;;;;13.20;3.72;;;;;;;16.55;45.57;99293.16;5101145;27;19919;-80
2022/04/27 04:03:05;;;;;;;9.82;3.40;;;;;;;16.55;46.06;99301.25;5102626;27;20035;-81
2022/04/27 04:05:32;;;;;;;10.60;3.40;;;;;;;16.62;45.91;99293.31;5101449;27;20045;-86
2022/04/27 04:07:58;;;;;;;8.95;3.28;;;;;;;16.55;46.10;99292.28;5084075;27;20142;-80
2022/04/27 04:10:24;;;;;;;14.98;3.67;;;;;;;16.73;46.28;99285.81;5136822;27;20039;-81
2022/04/27 04:12:51;;;;;;;10.73;3.33;;;;;;;16.83;45.80;99298.34;5101156;27;20405;-79
2022/04/27 04:15:43;;;;;;;8.35;3.00;;;;;;;16.87;46.08;99297.00;5072670;27;20089;-89
2022/04/27 04:18:27;;;;;;;12.38;3.28;;;;;;;16.87;46.15;99302.41;5117958;27;20094;-90
2022/04/27 04:21:04;;;;;;;11.13;3.17;;;;;;;16.90;46.42;99297.50;5102175;27;20125;-82
2022/04/27 04:23:42;;;;;;;14.13;2.70;;;;;;;17.06;46.28;99302.09;5100272;27;20043;-88
2022/04/27 04:28:56;;;;;;;9.05;2.80;;;;;;;17.27;46.71;99311.63;5118016;27;20035;-86
2022/04/27 04:31:22;;;;;;;9.98;2.90;;;;;;;17.38;46.68;99316.69;5083506;27;20450;-88
2022/04/27 04:34:04;;;;;;;15.32;2.83;;;;;;;17.35;46.62;99295.41;5119414;27;20498;-80
2022/04/27 04:36:31;;;;;;;15.10;2.13;;;;;;;17.48;46.09;99311.97;5116736;27;20103;-83
2022/04/27 04:38:58;;;;;;;9.65;2.40;;;;;;;17.51;46.28;99314.34;5083908;27;20103;-84
2022/04/27 04:41:26;;;;;;;13.45;1.88;;;;;;;17.46;45.62;99324.81;5100608;27;20054;-83
2022/04/27 04:43:56;;;;;;;16.08;2.17;;;;;;;17.58;44.93;99320.75;5083994;27;20162;-87
2022/04/27 04:46:23;;;;;;;4.40;1.80;;;;;;;17.44;43.41;99316.00;5082069;27;20050;-89
2022/04/27 04:49:15;;;;;;;14.52;2.03;;;;;;;17.50;42.58;99318.06;5109377;27;20382;-80
2022/04/27 04:52:00;;;;;;;16.55;1.88;;;;;;;17.31;42.55;99337.28;5096706;28;20142;-89
2022/04/27 04:54:25;;;;;;;9.38;1.60;;;;;;;17.30;42.55;99331.03;5095609;28;20074;-80
2022/04/27 04:57:10;;;;;;;5.55;2.30;;;;;;;17.20;43.43;99322.22;5084447;28;20555;-78
2022/04/27 04:59:48;;;;;;;6.50;1.70;;;;;;;17.10;43.62;99308.03;5080913;28;20083;-79
2022/04/27 05:02:24;;;;;;;2.70;1.75;;;;;;;17.30;43.86;99322.06;5110206;27;20043;-78
2022/04/27 05:05:07;;;;;;;8.05;1.77;;;;;;;17.36;43.19;99324.94;5133954;27;20051;-78
2022/04/27 05:07:48;;;;;;;7.90;1.80;;;;;;;17.44;42.85;99329.53;5081132;28;20044;-80
2022/04/27 05:10:17;;;;;;;8.13;2.10;;;;;;;17.42;43.25;99320.75;5095921;28;20096;-80
2022/04/27 05:12:43;;;;;;;5.43;1.65;;;;;;;17.42;43.12;99334.25;5113526;28;20039;-80
2022/04/27 05:15:35;;;;;;;7.93;1.75;;;;;;;17.39;43.26;99321.09;5074305;28;20074;-82
2022/04/27 05:18:14;;;;;;;13.05;4.82;;;;;;;17.38;43.27;99316.69;5078787;28;20088;-81
2022/04/27 05:21:03;;;;;;;10.73;1.63;;;;;;;17.41;43.43;99333.44;5076443;28;20051;-80
2022/04/27 05:23:49;;;;;;;11.18;1.73;;;;;;;17.27;43.59;99325.13;5070895;28;20051;-81
2022/04/27 05:26:27;;;;;;;10.85;1.83;;;;;;;17.39;44.16;99326.50;5063194;28;20421;-83
2022/04/27 05:32:13;;;;;;;3.25;1.60;;;;;;;17.47;43.75;99356.22;5078571;28;20039;-80
2022/04/27 05:34:58;;;;;;;2.67;1.67;;;;;;;17.64;43.16;99366.06;5070829;28;20118;-80
2022/04/27 05:37:47;;;;;;;8.07;1.75;;;;;;;17.79;43.42;99357.28;5043893;28;20056;-88
2022/04/27 05:40:31;;;;;;;7.30;2.00;;;;;;;18.10;42.91;99371.81;5064121;28;20050;-87
2022/04/27 05:43:16;;;;;;;15.82;2.20;;;;;;;18.13;42.21;99360.66;5074337;28;20473;-80
2022/04/27 05:46:02;;;;;;;11.07;2.55;;;;;;;18.25;42.82;99360.31;5064148;28;20047;-80
2022/04/27 05:48:57;;;;;;;18.60;2.90;;;;;;;18.54;42.73;99363.31;5044099;28;20089;-79
2022/04/27 05:51:40;;;;;;;9.20;2.80;;;;;;;18.65;42.42;99370.19;5059778;28;20040;-81
2022/04/27 05:54:16;;;;;;;13.25;3.33;;;;;;;18.72;42.50;99354.13;5057569;28;20071;-81
2022/04/27 05:56:56;;;;;;;13.07;3.58;;;;;;;18.70;42.37;99367.81;5073868;28;20074;-77
2022/04/27 05:59:38;;;;;;;13.27;3.28;;;;;;;18.79;42.62;99364.09;5042948;28;20056;-79
2022/04/27 06:02:04;;;;;;;13.50;3.50;;;;;;;19.14;41.74;99359.19;5057129;28;20130;-80
2022/04/27 06:04:30;;;;;;;14.45;3.35;;;;;;;19.16;41.47;99355.28;5057718;27;20067;-78
2022/04/27 06:06:56;;;;;;;13.82;3.58;;;;;;;19.24;41.37;99359.81;5115701;27;20081;-78
2022/04/27 06:09:22;;;;;;;14.15;3.15;;;;;;;19.33;41.04;99358.75;5097090;28;20466;-77
2022/04/27 06:11:55;;;;;;;6.25;2.28;;;;;;;19.30;40.73;99364.53;5082824;27;20070;-78
2022/04/27 06:14:30;;;;;;;8.05;2.50;;;;;;;19.30;40.27;99396.22;5133615;27;20051;-79
2022/04/27 06:16:59;;;;;;;12.10;2.27;;;;;;;19.34;40.33;99394.84;5098339;28;20099;-79
2022/04/27 06:19:25;;;;;;;6.97;1.70;;;;;;;19.17;40.79;99380.50;5098106;27;20035;-78
2022/04/27 06:21:53;;;;;;;12.20;2.25;;;;;;;19.25;40.45;99376.91;5081925;28;20350;-77
2022/04/27 06:24:20;;;;;;;9.15;2.20;;;;;;;19.26;40.83;99381.31;5114780;28;20050;-80
2022/04/27 06:26:50;;;;;;;5.32;2.10;;;;;;;19.33;40.83;99361.47;5115069;28;20091;-80
2022/04/27 06:29:16;;;;;;;14.27;2.22;;;;;;;19.56;40.38;99364.19;5081328;28;20047;-80
2022/04/27 06:31:46;;;;;;;8.02;1.88;;;;;;;19.51;40.24;99374.72;5115240;28;20046;-81
2022/04/27 06:34:12;;;;;;;8.57;1.95;;;;;;;19.44;40.58;99391.88;5115098;28;20045;-80
2022/04/27 06:36:39;;;;;;;11.02;1.98;;;;;;;19.43;40.91;99380.19;5114625;28;20054;-79
2022/04/27 06:39:14;;;;;;;19.20;2.45;;;;;;;19.55;40.72;99380.63;5097512;28;20043;-80
2022/04/27 06:41:42;;;;;;;8.52;2.08;;;;;;;19.48;40.82;99372.34;5115419;28;20466;-79
2022/04/27 06:44:34;;;;;;;15.55;2.60;;;;;;;19.58;40.55;99355.88;5091209;28;20100;-81
2022/04/27 06:47:19;;;;;;;22.05;2.78;;;;;;;19.94;40.65;99371.56;5133797;28;20115;-78
2022/04/27 06:50:04;;;;;;;6.82;2.17;;;;;;;20.05;40.49;99380.13;5100674;28;20039;-79
2022/04/27 06:52:54;;;;;;;21.92;3.03;;;;;;;19.91;41.11;99399.91;5086207;28;20051;-79
2022/04/27 06:55:38;;;;;;;7.53;2.47;;;;;;;19.65;41.53;99394.84;5100606;28;20038;-80
2022/04/27 06:58:23;;;;;;;12.23;3.50;;;;;;;19.40;42.23;99397.66;5114764;28;20111;-79
2022/04/27 07:01:06;;;;;;;19.17;3.00;;;;;;;19.08;42.95;99409.50;5114852;28;20062;-79
2022/04/27 07:03:38;;;;;;;5.15;3.13;;;;;;;18.96;42.93;99420.91;5097536;28;20141;-78
2022/04/27 07:06:04;;;;;;;7.35;2.80;;;;;;;18.80;44.47;99411.78;5097778;28;20046;-78
2022/04/27 07:08:30;;;;;;;4.57;2.65;;;;;;;18.58;45.25;99418.78;5096797;28;20551;-79
2022/04/27 07:10:56;;;;;;;15.05;3.95;;;;;;;18.33;48.02;99406.31;5081178;28;20516;-81
2022/04/27 07:13:23;;;;;;;12.18;3.25;;;;;;;18.19;47.92;99397.00;5114535;28;20051;-78
2022/04/27 07:15:50;;;;;;;15.85;3.65;;;;;;;18.16;49.87;99409.00;5114638;28;20043;-77
2022/04/27 07:18:25;;;;;;;17.25;3.70;;;;;;;18.11;51.01;99395.16;5097396;28;20541;-79
2022/04/27 07:20:51;;;;;;;11.98;4.20;;;;;;;17.94;51.30;99388.91;5115675;27;20092;-79
2022/04/27 07:23:17;;;;;;;12.70;3.60;;;;;;;18.28;51.85;99381.59;5117992;27;20047;-80
2022/04/27 07:25:43;;;;;;;9.63;3.55;;;;;;;18.56;50.86;99391.03;5118564;27;20039;-79
2022/04/27 07:28:09;;;;;;;10.45;3.90;;;;;;;18.79;49.77;99387.63;5118114;27;20414;-78
2022/04/27 07:30:35;;;;;;;12.10;3.97;;;;;;;19.11;49.85;99373.94;5117866;27;20047;-78
2022/04/27 07:33:01;;;;;;;8.23;3.63;;;;;;;19.27;49.92;99377.59;5100989;27;20050;-81
2022/04/27 07:35:26;;;;;;;9.50;3.13;;;;;;;19.69;49.01;99393.44;5117333;27;20061;-80
2022/04/27 07:37:52;;;;;;;11.98;4.00;;;;;;;20.21;48.45;99384.56;5100268;27;20051;-81
2022/04/27 07:40:18;;;;;;;8.82;3.38;;;;;;;20.76;47.61;99375.19;5083609;27;20085;-79
2022/04/27 07:42:44;;;;;;;11.10;3.65;;;;;;;21.16;47.01;99355.84;5083377;27;20035;-79
2022/04/27 07:45:10;;;;;;;12.73;3.80;;;;;;;21.33;46.28;99360.91;5117462;27;20043;-79
2022/04/27 07:47:44;;;;;;;8.23;3.65;;;;;;;21.10;46.50;99352.03;5117949;27;20054;-79
2022/04/27 07:50:11;;;;;;;8.35;3.80;;;;;;;21.27;45.80;99347.19;5100413;27;20406;-79
2022/04/27 07:52:37;;;;;;;19.33;3.55;;;;;;;21.25;46.14;99354.69;5117489;27;20116;-79
2022/04/27 07:55:05;;;;;;;12.10;4.20;;;;;;;21.12;46.89;99343.66;5101152;27;20066;-79
2022/04/27 07:57:32;;;;;;;8.55;3.00;;;;;;;21.13;45.79;99334.47;5117763;27;20089;-80
2022/04/27 07:59:59;;;;;;;8.52;2.70;;;;;;;21.20;44.87;99340.81;5083536;27;20038;-82
2022/04/27 08:02:25;;;;;;;11.05;3.10;;;;;;;21.42;44.29;99334.41;5117565;27;20051;-78
2022/04/27 08:04:51;;;;;;;4.22;2.17;;;;;;;21.79;43.85;99340.66;5135737;27;20047;-80
2022/04/27 08:07:17;;;;;;;8.77;2.78;;;;;;;22.23;43.75;99336.88;5135752;27;20481;-83
2022/04/27 08:09:44;;;;;;;10.15;2.55;;;;;;;22.40;42.34;99326.50;5107670;28;20051;-84
2022/04/27 08:12:10;;;;;;;7.30;2.53;;;;;;;22.52;42.26;99336.63;5077782;27;20047;-81
2022/04/27 08:14:36;;;;;;;11.35;2.75;;;;;;;22.58;42.21;99342.34;5093461;28;20051;-83
2022/04/27 08:17:03;;;;;;;9.48;2.90;;;;;;;22.57;41.63;99343.34;5093533;28;20055;-87
2022/04/27 08:19:29;;;;;;;9.02;2.53;;;;;;;22.49;41.26;99342.50;5101399;28;20052;-85
2022/04/27 08:21:55;;;;;;;12.40;2.42;;;;;;;22.26;41.79;99350.06;5104350;28;20031;-83
2022/04/27 08:24:22;;;;;;;4.50;2.55;;;;;;;21.73;41.76;99341.41;5076697;28;20089;-83
2022/04/27 08:26:48;;;;;;;18.27;2.85;;;;;;;21.55;42.29;99348.16;5093266;28;20047;-85
2022/04/27 08:29:14;;;;;;;27.23;2.97;;;;;;;21.27;42.66;99353.47;5076536;28;20071;-83
2022/04/27 08:31:40;;;;;;;9.27;2.38;;;;;;;20.93;43.87;99334.22;5093011;28;20086;-81
2022/04/27 08:34:06;;;;;;;16.73;2.65;;;;;;;20.68;44.19;99325.53;5075339;28;20040;-83
2022/04/27 08:36:33;;;;;;;13.85;2.75;;;;;;;20.46;45.52;99336.28;5078477;28;20044;-82
2022/04/27 08:39:00;;;;;;;15.27;3.08;;;;;;;20.07;46.70;99369.91;5103788;28;20046;-88
2022/04/27 08:41:28;;;;;;;8.52;2.63;;;;;;;19.79;47.30;99368.81;5089988;28;20486;-83
2022/04/27 08:43:55;;;;;;;11.13;2.90;;;;;;;19.57;48.34;99365.03;5086157;28;20048;-84
2022/04/27 08:46:22;;;;;;;14.27;2.67;;;;;;;19.45;48.78;99361.06;5098127;28;20289;-85
2022/04/27 08:48:48;;;;;;;12.48;2.75;;;;;;;19.32;48.78;99350.78;5074522;28;20047;-86
2022/04/27 08:51:15;;;;;;;15.18;3.05;;;;;;;19.22;50.37;99339.31;5113472;28;20085;-82
2022/04/27 08:53:42;;;;;;;12.57;3.53;;;;;;;19.33;51.21;99326.22;5112679;28;20040;-82
2022/04/27 08:56:08;;;;;;;14.32;3.55;;;;;;;19.27;52.70;99304.41;5096080;28;20111;-83
2022/04/27 08:58:34;;;;;;;12.05;4.10;;;;;;;19.50;52.78;99299.84;5112934;28;20043;-82
2022/04/27 09:01:00;;;;;;;11.07;3.58;;;;;;;19.70;52.77;99285.81;5079051;28;20138;-80
2022/04/27 09:03:34;;;;;;;13.98;4.20;;;;;;;19.91;52.81;99288.69;5113844;28;20066;-79
2022/04/27 09:06:05;;;;;;;22.15;4.60;;;;;;;20.13;52.70;99268.78;5096116;28;20040;-93
2022/04/27 09:08:55;;;;;;;19.15;4.18;;;;;;;20.56;51.27;99270.84;5095282;28;20043;-81
2022/04/27 09:11:29;;;;;;;14.13;4.05;;;;;;;20.74;50.74;99270.47;5095507;28;20520;-82
2022/04/27 09:13:56;;;;;;;15.10;4.15;;;;;;;20.91;50.46;99282.81;5113013;28;20052;-81
2022/04/27 09:16:24;;;;;;;14.52;4.15;;;;;;;21.00;50.46;99281.66;5078819;28;20047;-81
2022/04/27 09:22:00;;;;;;;18.95;4.20;;;;;;;21.40;49.50;99276.69;5088716;28;20446;-78
2022/04/27 09:24:28;;;;;;;10.88;3.70;;;;;;;21.28;49.96;99267.31;5084761;28;20047;-78
2022/04/27 09:27:09;;;;;;;17.90;4.20;;;;;;;21.43;49.34;99275.44;5058736;28;20042;-79
2022/04/27 09:29:35;;;;;;;15.02;4.00;;;;;;;21.57;49.57;99278.09;5058765;28;20414;-79
2022/04/27 09:32:03;;;;;;;9.52;3.63;;;;;;;21.58;48.94;99276.19;5092218;28;20051;-79
2022/04/27 09:34:29;;;;;;;7.90;2.92;;;;;;;21.63;48.34;99265.59;5074913;28;20074;-82
2022/04/27 09:36:59;;;;;;;13.93;3.10;;;;;;;21.78;47.94;99257.34;5074855;28;20048;-82
2022/04/27 09:39:25;;;;;;;12.20;3.38;;;;;;;21.91;47.98;99256.59;5092054;28;20162;-81
2022/04/27 09:41:52;;;;;;;12.55;2.90;;;;;;;22.04;48.04;99235.78;5074983;28;20063;-83
2022/04/27 09:44:30;;;;;;;13.35;3.28;;;;;;;22.35;47.21;99226.34;5092004;28;20407;-82
2022/04/27 09:46:58;;;;;;;12.25;3.38;;;;;;;22.72;46.31;99216.03;5074514;28;20040;-81
2022/04/27 09:49:24;;;;;;;13.85;3.72;;;;;;;23.12;46.61;99225.16;5093154;28;20036;-81
2022/04/27 09:51:54;;;;;;;11.60;3.20;;;;;;;23.43;46.06;99229.19;5075052;28;20528;-81
2022/04/27 09:54:28;;;;;;;21.92;3.75;;;;;;;23.88;45.09;99222.13;5092154;28;20044;-81
2022/04/27 09:56:58;;;;;;;15.48;3.55;;;;;;;24.56;45.36;99223.63;5074944;28;20043;-79
2022/04/27 09:59:32;;;;;;;35.47;4.10;;;;;;;25.33;43.63;99214.41;5074836;28;20062;-81
2022/04/27 10:02:00;;;;;;;15.27;3.70;;;;;;;25.62;42.73;99228.50;5093234;28;20046;-82
2022/04/27 10:04:28;;;;;;;12.05;4.07;;;;;;;25.49;42.12;99228.59;5058446;28;20047;-78
2022/04/27 10:07:02;;;;;;;13.77;3.78;;;;;;;25.39;40.80;99216.25;5074252;28;20039;-80
2022/04/27 10:09:29;;;;;;;17.05;3.72;;;;;;;25.58;39.97;99208.97;5091821;28;20047;-80
2022/04/27 10:11:57;;;;;;;12.70;3.85;;;;;;;25.46;39.11;99223.56;5093506;28;20035;-80
2022/04/27 10:14:25;;;;;;;22.00;3.70;;;;;;;25.16;37.07;99225.06;5074291;28;20419;-87
2022/04/27 10:16:52;;;;;;;11.85;2.92;;;;;;;24.82;37.01;99214.47;5089209;28;20418;-78
2022/04/27 10:19:19;;;;;;;14.43;3.30;;;;;;;24.72;35.84;99228.63;5092671;28;20113;-78
2022/04/27 10:21:59;;;;;;;29.17;3.80;;;;;;;24.73;35.35;99235.75;5093265;28;20390;-78
2022/04/27 10:24:35;;;;;;;15.10;2.90;;;;;;;24.88;34.71;99228.13;5111536;28;20463;-76
2022/04/27 10:27:13;;;;;;;14.52;2.78;;;;;;;25.03;36.08;99225.09;5095373;28;20043;-76
2022/04/27 10:29:39;;;;;;;;;;;;;;;25.21;36.01;99221.66;5079073;28;20097;-78
2022/04/27 10:32:05;;;;;;;16.40;2.72;;;;;;;25.49;34.67;99217.66;5098691;28;19923;-81
2022/04/27 10:34:33;;;;;;;13.85;2.95;;;;;;;25.55;34.84;99217.59;5094731;28;20147;-79
2022/04/27 10:37:01;;;;;;;15.45;2.60;;;;;;;25.56;34.58;99207.50;5113222;28;20406;-82
2022/04/27 10:39:31;;;;;;;20.80;3.08;;;;;;;25.41;34.34;99225.06;5095991;28;20059;-78
2022/04/27 10:42:02;;;;;;;18.73;3.42;;;;;;;25.32;35.02;99226.41;5113273;28;20410;-79
2022/04/27 10:44:47;;;;;;;20.65;2.88;;;;;;;25.33;34.62;99230.00;5111152;28;20062;-78
2022/04/27 10:47:14;;;;;;;16.02;2.70;;;;;;;25.31;33.46;99216.53;5057809;28;20040;-79
2022/04/27 10:49:41;;;;;;;22.80;3.25;;;;;;;25.17;33.59;99220.41;5074710;28;20055;-79
2022/04/27 10:52:08;;;;;;;16.25;2.75;;;;;;;25.24;34.07;99215.75;5092524;28;20121;-78
2022/04/27 10:54:39;;;;;;;17.02;3.58;;;;;;;25.42;33.68;99201.28;5091337;28;20040;-81
2022/04/27 10:57:14;;;;;;;14.43;2.72;;;;;;;25.56;34.01;99213.81;5061147;28;20036;-80
2022/04/27 10:59:56;;;;;;;23.80;3.03;;;;;;;25.67;33.06;99212.25;5095253;28;20055;-79
2022/04/27 11:02:35;;;;;;;25.65;3.80;;;;;;;25.77;33.01;99212.59;5097899;28;20139;-79
2022/04/27 11:05:03;;;;;;;25.00;3.67;;;;;;;25.67;32.60;99214.97;5115755;28;20406;-81
2022/04/27 11:07:39;;;;;;;22.15;3.33;;;;;;;25.68;31.73;99217.47;5117041;28;20104;-80
2022/04/27 11:10:17;;;;;;;18.20;3.10;;;;;;;25.74;32.21;99226.72;5117165;27;20053;-80
2022/04/27 11:12:46;;;;;;;14.48;2.60;;;;;;;25.78;32.33;99225.22;5115757;28;20049;-79
2022/04/27 11:15:21;;;;;;;10.77;2.78;;;;;;;25.82;32.48;99222.88;5098658;28;20075;-83
2022/04/27 11:18:01;;;;;;;21.65;3.60;;;;;;;25.86;31.95;99216.72;5080451;28;20044;-80
2022/04/27 11:20:28;;;;;;;13.68;2.60;;;;;;;25.75;33.08;99222.91;5079659;28;20093;-79
2022/04/27 11:22:55;;;;;;;16.85;2.55;;;;;;;25.66;32.75;99205.09;5103788;28;20124;-79
2022/04/27 11:25:36;;;;;;;16.67;2.88;;;;;;;25.58;32.55;99224.53;5115329;28;20047;-79
2022/04/27 11:28:03;;;;;;;21.80;2.95;;;;;;;25.47;32.80;99214.31;5098521;28;20035;-79
2022/04/27 11:30:31;;;;;;;22.00;3.38;;;;;;;25.43;33.04;99219.41;5116680;28;20043;-82
2022/04/27 11:32:57;;;;;;;16.10;3.08;;;;;;;25.37;33.20;99225.75;5116276;28;20458;-84
2022/04/27 11:35:25;;;;;;;16.42;2.92;;;;;;;25.30;32.64;99212.09;5098981;28;20406;-83
2022/04/27 11:37:53;;;;;;;12.52;2.83;;;;;;;25.19;32.76;99212.81;5098116;28;20104;-79
2022/04/27 11:40:25;;;;;;;26.33;2.95;;;;;;;25.02;32.74;99225.31;5116069;28;20043;-82
2022/04/27 11:42:52;;;;;;;18.17;3.40;;;;;;;24.91;33.04;99218.66;5098282;28;20044;-82
2022/04/27 11:45:19;;;;;;;22.92;2.70;;;;;;;24.66;32.72;99213.06;5098081;28;20040;-80
2022/04/27 11:47:55;;;;;;;13.32;3.15;;;;;;;24.71;33.23;99225.06;5094490;28;20135;-80
2022/04/27 11:50:21;;;;;;;16.35;3.03;;;;;;;24.70;33.46;99230.72;5078329;28;20134;-79
2022/04/27 11:53:08;;;;;;;16.25;3.75;;;;;;;24.67;31.43;99242.09;5096151;28;20134;-82
2022/04/27 11:55:35;;;;;;;17.10;3.28;;;;;;;24.64;31.04;99248.84;5061332;28;20074;-81
2022/04/27 11:58:03;;;;;;;17.48;3.63;;;;;;;24.46;30.80;99268.66;5094737;28;20036;-79